Wing, Alabama
Current Conditions -  °F | °C
As of 12:58 AM on Sunday 23 Nov 2014 (Local Time) from K0J4 Reporting Station
Overcast Overcast  
Wind Chill: 61°   Ceiling: 400
Heat Index: 61°   Visibility: 10mi
Dew Point: 59°   Wind: 9mph
Humidity: 93%   Direction: 90°E
Pressure: 29.98"   Gusts: NA
Location:  31.03°N, 86.61°W
Report Text: K0J4 230658Z AUTO 09008KT 10SM OVC004 16/15 A2998 RMK AO2 RAE40 SLP148 P0000 T01610150 $
Loading
Personal Weather Stations






























Interactive Weather Map New forecast layout! Learn more

10-Day Weather Forecast

Advertisements
Track Severe Weather on mobile